Terminal Aerodrome Forecast
Issued by NWS Paducah, KY

Home | Current Version | Previous Version | Text Only | Print | Product List | Glossary On
Versions: 1 2 3 4 5 6 7 8 9 10 11 12 13 14 15 16 17 18
000
FTUS43 KPAH 201720
TAFPAH
TAF
KPAH 201720Z 2018/2118 07009KT 5SM -SHRA BR BKN030 OVC080
      TEMPO 2018/2021 2SM SHRA BR BKN015 OVC030
     FM202100 01008KT 5SM -SHRA BR BKN014 OVC045
     FM210000 36006KT 4SM BR OVC009
     FM211600 36012KT P6SM BKN020=

USA.gov is the U.S. government's official web portal to all federal, state and local government web resources and services.